sensor_id;sensor_type;location;lat;lon;timestamp;temperature;humidity
19888;DHT22;10106;51.332;12.336;2023-01-08T00:02:08;7.10;99.90
19888;DHT22;10106;51.332;12.336;2023-01-08T00:04:34;7.20;99.90
19888;DHT22;10106;51.332;12.336;2023-01-08T00:07:00;7.20;99.90
19888;DHT22;10106;51.332;12.336;2023-01-08T00:09:25;7.20;99.90
19888;DHT22;10106;51.332;12.336;2023-01-08T00:11:51;7.30;99.90
19888;DHT22;10106;51.332;12.336;2023-01-08T00:14:18;7.30;99.90
19888;DHT22;10106;51.332;12.336;2023-01-08T00:16:43;7.30;99.90
19888;DHT22;10106;51.332;12.336;2023-01-08T00:19:10;7.30;99.90
19888;DHT22;10106;51.332;12.336;2023-01-08T00:21:36;7.30;99.90
19888;DHT22;10106;51.332;12.336;2023-01-08T00:24:02;7.20;99.90
19888;DHT22;10106;51.332;12.336;2023-01-08T00:26:28;7.20;99.90
19888;DHT22;10106;51.332;12.336;2023-01-08T00:28:54;7.10;99.90
19888;DHT22;10106;51.332;12.336;2023-01-08T00:31:20;7.10;99.90
19888;DHT22;10106;51.332;12.336;2023-01-08T00:33:45;7.10;99.90
19888;DHT22;10106;51.332;12.336;2023-01-08T00:36:13;7.20;99.90
19888;DHT22;10106;51.332;12.336;2023-01-08T00:38:39;7.20;99.90
19888;DHT22;10106;51.332;12.336;2023-01-08T00:41:05;7.30;99.90
19888;DHT22;10106;51.332;12.336;2023-01-08T00:43:31;7.40;99.90
19888;DHT22;10106;51.332;12.336;2023-01-08T00:45:57;7.40;99.90
19888;DHT22;10106;51.332;12.336;2023-01-08T00:48:22;7.40;99.90
19888;DHT22;10106;51.332;12.336;2023-01-08T00:50:50;7.50;99.90
19888;DHT22;10106;51.332;12.336;2023-01-08T00:53:17;7.50;99.90
19888;DHT22;10106;51.332;12.336;2023-01-08T00:55:42;7.50;99.90
19888;DHT22;10106;51.332;12.336;2023-01-08T00:58:08;7.50;99.90
19888;DHT22;10106;51.332;12.336;2023-01-08T01:00:34;7.50;99.90
19888;DHT22;10106;51.332;12.336;2023-01-08T01:02:59;7.50;99.90
19888;DHT22;10106;51.332;12.336;2023-01-08T01:05:25;7.50;99.90
19888;DHT22;10106;51.332;12.336;2023-01-08T01:07:51;7.50;99.90
19888;DHT22;10106;51.332;12.336;2023-01-08T01:10:17;7.50;99.90
19888;DHT22;10106;51.332;12.336;2023-01-08T01:12:43;7.60;99.90
19888;DHT22;10106;51.332;12.336;2023-01-08T01:15:11;7.60;99.90
19888;DHT22;10106;51.332;12.336;2023-01-08T01:17:38;7.60;99.90
19888;DHT22;10106;51.332;12.336;2023-01-08T01:20:06;7.70;99.90
19888;DHT22;10106;51.332;12.336;2023-01-08T01:22:32;7.60;99.90
19888;DHT22;10106;51.332;12.336;2023-01-08T01:24:58;7.70;99.90
19888;DHT22;10106;51.332;12.336;2023-01-08T01:27:24;7.60;99.90
19888;DHT22;10106;51.332;12.336;2023-01-08T01:29:51;7.60;99.90
19888;DHT22;10106;51.332;12.336;2023-01-08T01:32:16;7.70;99.90
19888;DHT22;10106;51.332;12.336;2023-01-08T01:34:42;7.60;99.90
19888;DHT22;10106;51.332;12.336;2023-01-08T01:37:12;7.60;99.90
19888;DHT22;10106;51.332;12.336;2023-01-08T01:39:39;7.50;99.90
19888;DHT22;10106;51.332;12.336;2023-01-08T01:42:05;7.40;99.90
19888;DHT22;10106;51.332;12.336;2023-01-08T01:44:48;7.30;99.90
19888;DHT22;10106;51.332;12.336;2023-01-08T01:47:33;7.30;99.90
19888;DHT22;10106;51.332;12.336;2023-01-08T01:50:10;7.20;99.90
19888;DHT22;10106;51.332;12.336;2023-01-08T01:52:41;7.20;99.90
19888;DHT22;10106;51.332;12.336;2023-01-08T01:55:12;7.20;99.90
19888;DHT22;10106;51.332;12.336;2023-01-08T01:57:38;7.20;99.90
19888;DHT22;10106;51.332;12.336;2023-01-08T02:00:07;7.20;99.90
19888;DHT22;10106;51.332;12.336;2023-01-08T02:02:33;7.20;99.90
19888;DHT22;10106;51.332;12.336;2023-01-08T02:05:00;7.20;99.90
19888;DHT22;10106;51.332;12.336;2023-01-08T02:10:11;7.20;99.90
19888;DHT22;10106;51.332;12.336;2023-01-08T02:13:00;7.20;99.90
19888;DHT22;10106;51.332;12.336;2023-01-08T02:16:13;7.20;99.90
19888;DHT22;10106;51.332;12.336;2023-01-08T02:18:46;7.20;99.90
19888;DHT22;10106;51.332;12.336;2023-01-08T02:21:38;7.00;99.90
19888;DHT22;10106;51.332;12.336;2023-01-08T02:24:26;7.00;99.90
19888;DHT22;10106;51.332;12.336;2023-01-08T02:26:56;6.90;99.90
19888;DHT22;10106;51.332;12.336;2023-01-08T02:29:25;6.90;99.90
19888;DHT22;10106;51.332;12.336;2023-01-08T02:31:53;6.80;99.90
19888;DHT22;10106;51.332;12.336;2023-01-08T02:34:19;6.80;99.90
19888;DHT22;10106;51.332;12.336;2023-01-08T02:36:46;6.70;99.90
19888;DHT22;10106;51.332;12.336;2023-01-08T02:45:51;6.60;99.90
19888;DHT22;10106;51.332;12.336;2023-01-08T02:48:08;6.60;99.90
19888;DHT22;10106;51.332;12.336;2023-01-08T02:53:26;6.70;99.90
19888;DHT22;10106;51.332;12.336;2023-01-08T02:56:02;6.80;99.90
19888;DHT22;10106;51.332;12.336;2023-01-08T02:58:31;6.80;99.90
19888;DHT22;10106;51.332;12.336;2023-01-08T03:00:59;6.90;99.90
19888;DHT22;10106;51.332;12.336;2023-01-08T03:03:27;7.00;99.90
19888;DHT22;10106;51.332;12.336;2023-01-08T03:06:01;7.00;99.90
19888;DHT22;10106;51.332;12.336;2023-01-08T03:08:29;7.00;99.90
19888;DHT22;10106;51.332;12.336;2023-01-08T03:11:02;7.10;99.90
19888;DHT22;10106;51.332;12.336;2023-01-08T03:16:24;7.20;99.90
19888;DHT22;10106;51.332;12.336;2023-01-08T03:19:03;7.30;99.90
19888;DHT22;10106;51.332;12.336;2023-01-08T03:21:31;7.40;99.90
19888;DHT22;10106;51.332;12.336;2023-01-08T03:23:57;7.40;99.90
19888;DHT22;10106;51.332;12.336;2023-01-08T03:26:25;7.50;99.90
19888;DHT22;10106;51.332;12.336;2023-01-08T03:28:52;7.60;99.90
19888;DHT22;10106;51.332;12.336;2023-01-08T03:31:19;7.70;99.90
19888;DHT22;10106;51.332;12.336;2023-01-08T03:33:46;7.70;99.90
19888;DHT22;10106;51.332;12.336;2023-01-08T03:36:14;7.70;99.90
19888;DHT22;10106;51.332;12.336;2023-01-08T03:39:04;7.70;99.90
19888;DHT22;10106;51.332;12.336;2023-01-08T03:41:35;7.80;99.90
19888;DHT22;10106;51.332;12.336;2023-01-08T03:44:01;7.80;99.90
19888;DHT22;10106;51.332;12.336;2023-01-08T03:46:37;7.70;99.90
19888;DHT22;10106;51.332;12.336;2023-01-08T03:49:05;7.70;99.90
19888;DHT22;10106;51.332;12.336;2023-01-08T03:51:44;7.60;99.90
19888;DHT22;10106;51.332;12.336;2023-01-08T03:54:17;7.60;99.90
19888;DHT22;10106;51.332;12.336;2023-01-08T03:56:43;7.50;99.90
19888;DHT22;10106;51.332;12.336;2023-01-08T03:59:13;7.50;99.90
19888;DHT22;10106;51.332;12.336;2023-01-08T04:01:39;7.50;99.90
19888;DHT22;10106;51.332;12.336;2023-01-08T04:04:06;7.50;99.90
19888;DHT22;10106;51.332;12.336;2023-01-08T04:06:32;7.60;99.90
19888;DHT22;10106;51.332;12.336;2023-01-08T04:08:57;7.70;99.90
19888;DHT22;10106;51.332;12.336;2023-01-08T04:11:23;7.70;99.90
19888;DHT22;10106;51.332;12.336;2023-01-08T04:13:49;7.70;99.90
19888;DHT22;10106;51.332;12.336;2023-01-08T04:16:14;7.70;99.90
19888;DHT22;10106;51.332;12.336;2023-01-08T04:18:40;7.70;99.90
19888;DHT22;10106;51.332;12.336;2023-01-08T04:21:06;7.70;99.90
19888;DHT22;10106;51.332;12.336;2023-01-08T04:23:31;7.70;99.90
19888;DHT22;10106;51.332;12.336;2023-01-08T04:25:57;7.70;99.90
19888;DHT22;10106;51.332;12.336;2023-01-08T04:28:23;7.70;99.90
19888;DHT22;10106;51.332;12.336;2023-01-08T04:30:49;7.70;99.90
19888;DHT22;10106;51.332;12.336;2023-01-08T04:33:15;7.70;99.90
19888;DHT22;10106;51.332;12.336;2023-01-08T04:35:41;7.60;99.90
19888;DHT22;10106;51.332;12.336;2023-01-08T04:38:07;7.60;99.90
19888;DHT22;10106;51.332;12.336;2023-01-08T04:40:33;7.60;99.90
19888;DHT22;10106;51.332;12.336;2023-01-08T04:42:59;7.60;99.90
19888;DHT22;10106;51.332;12.336;2023-01-08T04:45:24;7.60;99.90
19888;DHT22;10106;51.332;12.336;2023-01-08T04:47:59;7.60;99.90
19888;DHT22;10106;51.332;12.336;2023-01-08T04:50:25;7.50;99.90
19888;DHT22;10106;51.332;12.336;2023-01-08T04:52:51;7.50;99.90
19888;DHT22;10106;51.332;12.336;2023-01-08T04:55:17;7.50;99.90
19888;DHT22;10106;51.332;12.336;2023-01-08T04:57:43;7.40;99.90
19888;DHT22;10106;51.332;12.336;2023-01-08T05:00:09;7.40;99.90
19888;DHT22;10106;51.332;12.336;2023-01-08T05:02:35;7.50;99.90
19888;DHT22;10106;51.332;12.336;2023-01-08T05:05:01;7.50;99.90
19888;DHT22;10106;51.332;12.336;2023-01-08T05:07:27;7.60;99.90
19888;DHT22;10106;51.332;12.336;2023-01-08T05:09:53;7.60;99.90
19888;DHT22;10106;51.332;12.336;2023-01-08T05:12:18;7.60;99.90
19888;DHT22;10106;51.332;12.336;2023-01-08T05:14:44;7.60;99.90
19888;DHT22;10106;51.332;12.336;2023-01-08T05:17:10;7.70;99.90
19888;DHT22;10106;51.332;12.336;2023-01-08T05:19:35;7.60;99.90
19888;DHT22;10106;51.332;12.336;2023-01-08T05:22:01;7.60;99.90
19888;DHT22;10106;51.332;12.336;2023-01-08T05:24:27;7.70;99.90
19888;DHT22;10106;51.332;12.336;2023-01-08T05:26:52;7.70;99.90
19888;DHT22;10106;51.332;12.336;2023-01-08T05:29:18;7.70;99.90
19888;DHT22;10106;51.332;12.336;2023-01-08T05:31:44;7.70;99.90
19888;DHT22;10106;51.332;12.336;2023-01-08T05:34:10;7.80;99.90
19888;DHT22;10106;51.332;12.336;2023-01-08T05:36:35;7.80;99.90
19888;DHT22;10106;51.332;12.336;2023-01-08T05:39:02;7.70;99.90
19888;DHT22;10106;51.332;12.336;2023-01-08T05:41:27;7.80;99.90
19888;DHT22;10106;51.332;12.336;2023-01-08T05:43:53;7.80;99.90
19888;DHT22;10106;51.332;12.336;2023-01-08T05:46:19;7.80;99.90
19888;DHT22;10106;51.332;12.336;2023-01-08T05:48:44;7.80;99.90
19888;DHT22;10106;51.332;12.336;2023-01-08T05:51:10;7.80;99.90
19888;DHT22;10106;51.332;12.336;2023-01-08T05:53:35;7.80;99.90
19888;DHT22;10106;51.332;12.336;2023-01-08T05:56:03;7.80;99.90
19888;DHT22;10106;51.332;12.336;2023-01-08T05:58:30;7.80;99.90
19888;DHT22;10106;51.332;12.336;2023-01-08T06:06:07;7.80;99.90
19888;DHT22;10106;51.332;12.336;2023-01-08T06:08:34;7.80;99.90
19888;DHT22;10106;51.332;12.336;2023-01-08T06:11:02;7.80;99.90
19888;DHT22;10106;51.332;12.336;2023-01-08T06:13:28;7.80;99.90
19888;DHT22;10106;51.332;12.336;2023-01-08T06:15:54;7.90;99.90
19888;DHT22;10106;51.332;12.336;2023-01-08T06:18:20;7.90;99.90
19888;DHT22;10106;51.332;12.336;2023-01-08T06:20:45;7.80;99.90
19888;DHT22;10106;51.332;12.336;2023-01-08T06:23:11;7.80;99.90
19888;DHT22;10106;51.332;12.336;2023-01-08T06:25:37;7.80;99.90
19888;DHT22;10106;51.332;12.336;2023-01-08T06:28:03;7.80;99.90
19888;DHT22;10106;51.332;12.336;2023-01-08T06:30:29;7.90;99.90
19888;DHT22;10106;51.332;12.336;2023-01-08T06:32:56;7.80;99.90
19888;DHT22;10106;51.332;12.336;2023-01-08T06:35:21;7.80;99.90
19888;DHT22;10106;51.332;12.336;2023-01-08T06:37:47;7.80;99.90
19888;DHT22;10106;51.332;12.336;2023-01-08T06:40:13;7.80;99.90
19888;DHT22;10106;51.332;12.336;2023-01-08T06:42:38;7.80;99.90
19888;DHT22;10106;51.332;12.336;2023-01-08T06:45:05;7.80;99.90
19888;DHT22;10106;51.332;12.336;2023-01-08T06:47:32;7.80;99.90
19888;DHT22;10106;51.332;12.336;2023-01-08T06:49:57;7.90;99.90
19888;DHT22;10106;51.332;12.336;2023-01-08T06:52:24;7.90;99.90
19888;DHT22;10106;51.332;12.336;2023-01-08T06:54:49;7.90;99.90
19888;DHT22;10106;51.332;12.336;2023-01-08T06:57:15;7.90;99.90
19888;DHT22;10106;51.332;12.336;2023-01-08T06:59:41;8.00;99.90
19888;DHT22;10106;51.332;12.336;2023-01-08T07:02:12;8.00;99.90
19888;DHT22;10106;51.332;12.336;2023-01-08T07:04:38;8.00;99.90
19888;DHT22;10106;51.332;12.336;2023-01-08T07:07:04;8.00;99.90
19888;DHT22;10106;51.332;12.336;2023-01-08T07:09:29;8.00;99.90
19888;DHT22;10106;51.332;12.336;2023-01-08T07:11:55;8.00;99.90
19888;DHT22;10106;51.332;12.336;2023-01-08T07:14:20;7.90;99.90
19888;DHT22;10106;51.332;12.336;2023-01-08T07:16:46;7.90;99.90
19888;DHT22;10106;51.332;12.336;2023-01-08T07:19:12;7.90;99.90
19888;DHT22;10106;51.332;12.336;2023-01-08T07:21:38;7.90;99.90
19888;DHT22;10106;51.332;12.336;2023-01-08T07:24:03;7.90;99.90
19888;DHT22;10106;51.332;12.336;2023-01-08T07:26:30;7.90;99.90
19888;DHT22;10106;51.332;12.336;2023-01-08T07:28:56;7.90;99.90
19888;DHT22;10106;51.332;12.336;2023-01-08T07:31:22;7.80;99.90
19888;DHT22;10106;51.332;12.336;2023-01-08T07:33:47;7.90;99.90
19888;DHT22;10106;51.332;12.336;2023-01-08T07:36:13;7.80;99.90
19888;DHT22;10106;51.332;12.336;2023-01-08T07:38:40;7.80;99.90
19888;DHT22;10106;51.332;12.336;2023-01-08T07:41:06;7.80;99.90
19888;DHT22;10106;51.332;12.336;2023-01-08T07:43:32;7.80;99.90
19888;DHT22;10106;51.332;12.336;2023-01-08T07:46:01;7.80;99.90
19888;DHT22;10106;51.332;12.336;2023-01-08T07:48:28;7.80;99.90
19888;DHT22;10106;51.332;12.336;2023-01-08T07:50:53;7.80;99.90
19888;DHT22;10106;51.332;12.336;2023-01-08T07:53:24;7.80;99.90
19888;DHT22;10106;51.332;12.336;2023-01-08T07:55:50;7.80;99.90
19888;DHT22;10106;51.332;12.336;2023-01-08T07:58:15;7.80;99.90
19888;DHT22;10106;51.332;12.336;2023-01-08T08:00:41;7.80;99.90
19888;DHT22;10106;51.332;12.336;2023-01-08T08:03:08;7.80;99.90
19888;DHT22;10106;51.332;12.336;2023-01-08T08:05:36;7.80;99.90
19888;DHT22;10106;51.332;12.336;2023-01-08T08:08:07;7.80;99.90
19888;DHT22;10106;51.332;12.336;2023-01-08T08:10:32;7.80;99.90
19888;DHT22;10106;51.332;12.336;2023-01-08T08:12:58;7.90;99.90
19888;DHT22;10106;51.332;12.336;2023-01-08T08:15:24;7.90;99.90
19888;DHT22;10106;51.332;12.336;2023-01-08T08:17:49;7.90;99.90
19888;DHT22;10106;51.332;12.336;2023-01-08T08:20:15;7.90;99.90
19888;DHT22;10106;51.332;12.336;2023-01-08T08:22:41;8.00;99.90
19888;DHT22;10106;51.332;12.336;2023-01-08T08:25:07;8.10;99.90
19888;DHT22;10106;51.332;12.336;2023-01-08T08:27:33;8.00;99.90
19888;DHT22;10106;51.332;12.336;2023-01-08T08:29:59;8.10;99.90
19888;DHT22;10106;51.332;12.336;2023-01-08T08:32:24;8.10;99.90
19888;DHT22;10106;51.332;12.336;2023-01-08T08:34:50;8.10;99.90
19888;DHT22;10106;51.332;12.336;2023-01-08T08:37:16;8.10;99.90
19888;DHT22;10106;51.332;12.336;2023-01-08T08:39:41;8.10;99.90
19888;DHT22;10106;51.332;12.336;2023-01-08T08:42:07;8.20;99.90
19888;DHT22;10106;51.332;12.336;2023-01-08T08:44:33;8.20;99.90
19888;DHT22;10106;51.332;12.336;2023-01-08T08:46:58;8.20;99.90
19888;DHT22;10106;51.332;12.336;2023-01-08T08:49:24;8.20;99.90
19888;DHT22;10106;51.332;12.336;2023-01-08T08:51:50;8.20;99.90
19888;DHT22;10106;51.332;12.336;2023-01-08T08:54:17;8.20;99.90
19888;DHT22;10106;51.332;12.336;2023-01-08T08:56:43;8.20;99.90
19888;DHT22;10106;51.332;12.336;2023-01-08T08:59:09;8.20;99.90
19888;DHT22;10106;51.332;12.336;2023-01-08T09:01:37;8.10;99.90
19888;DHT22;10106;51.332;12.336;2023-01-08T09:04:03;8.10;99.90
19888;DHT22;10106;51.332;12.336;2023-01-08T09:06:28;8.10;99.90
19888;DHT22;10106;51.332;12.336;2023-01-08T09:08:54;8.10;99.90
19888;DHT22;10106;51.332;12.336;2023-01-08T09:11:20;8.10;99.90
19888;DHT22;10106;51.332;12.336;2023-01-08T09:13:46;8.10;99.90
19888;DHT22;10106;51.332;12.336;2023-01-08T09:16:11;8.10;99.90
19888;DHT22;10106;51.332;12.336;2023-01-08T09:18:37;8.20;99.90
19888;DHT22;10106;51.332;12.336;2023-01-08T09:21:04;8.10;99.90
19888;DHT22;10106;51.332;12.336;2023-01-08T09:23:30;8.20;99.90
19888;DHT22;10106;51.332;12.336;2023-01-08T09:26:03;8.20;99.90
19888;DHT22;10106;51.332;12.336;2023-01-08T09:28:29;8.20;99.90
19888;DHT22;10106;51.332;12.336;2023-01-08T09:30:55;8.20;99.90
19888;DHT22;10106;51.332;12.336;2023-01-08T09:33:20;8.20;99.90
19888;DHT22;10106;51.332;12.336;2023-01-08T09:35:46;8.20;99.90
19888;DHT22;10106;51.332;12.336;2023-01-08T09:38:12;8.20;99.90
19888;DHT22;10106;51.332;12.336;2023-01-08T09:40:47;8.20;99.90
19888;DHT22;10106;51.332;12.336;2023-01-08T09:43:18;8.20;99.90
19888;DHT22;10106;51.332;12.336;2023-01-08T09:45:49;8.30;99.90
19888;DHT22;10106;51.332;12.336;2023-01-08T09:48:17;8.30;99.90
19888;DHT22;10106;51.332;12.336;2023-01-08T09:50:46;8.30;99.90
19888;DHT22;10106;51.332;12.336;2023-01-08T09:53:14;8.30;99.90
19888;DHT22;10106;51.332;12.336;2023-01-08T09:55:40;8.40;99.90
19888;DHT22;10106;51.332;12.336;2023-01-08T09:58:40;8.40;99.90
19888;DHT22;10106;51.332;12.336;2023-01-08T10:01:05;8.50;99.90
19888;DHT22;10106;51.332;12.336;2023-01-08T10:06:11;8.40;99.90
19888;DHT22;10106;51.332;12.336;2023-01-08T10:08:38;8.40;99.90
19888;DHT22;10106;51.332;12.336;2023-01-08T10:11:05;8.40;99.90
19888;DHT22;10106;51.332;12.336;2023-01-08T10:13:32;8.50;99.90
19888;DHT22;10106;51.332;12.336;2023-01-08T10:15:59;8.50;99.90
19888;DHT22;10106;51.332;12.336;2023-01-08T10:18:27;8.60;99.90
19888;DHT22;10106;51.332;12.336;2023-01-08T10:20:53;8.50;99.90
19888;DHT22;10106;51.332;12.336;2023-01-08T10:23:20;8.60;99.90
19888;DHT22;10106;51.332;12.336;2023-01-08T10:25:48;8.60;99.90
19888;DHT22;10106;51.332;12.336;2023-01-08T10:28:25;8.60;99.90
19888;DHT22;10106;51.332;12.336;2023-01-08T10:30:53;8.60;99.90
19888;DHT22;10106;51.332;12.336;2023-01-08T10:33:40;8.60;99.90
19888;DHT22;10106;51.332;12.336;2023-01-08T10:36:09;8.60;99.90
19888;DHT22;10106;51.332;12.336;2023-01-08T10:38:49;8.60;99.90
19888;DHT22;10106;51.332;12.336;2023-01-08T10:41:17;8.60;99.90
19888;DHT22;10106;51.332;12.336;2023-01-08T10:43:56;8.60;99.90
19888;DHT22;10106;51.332;12.336;2023-01-08T10:46:45;8.70;99.90
19888;DHT22;10106;51.332;12.336;2023-01-08T10:49:32;8.70;99.90
19888;DHT22;10106;51.332;12.336;2023-01-08T10:51:59;8.70;99.90
19888;DHT22;10106;51.332;12.336;2023-01-08T10:54:37;8.80;99.90
19888;DHT22;10106;51.332;12.336;2023-01-08T10:57:22;8.80;99.90
19888;DHT22;10106;51.332;12.336;2023-01-08T10:59:48;8.80;99.90
19888;DHT22;10106;51.332;12.336;2023-01-08T11:04:51;8.80;99.90
19888;DHT22;10106;51.332;12.336;2023-01-08T11:07:22;8.80;99.90
19888;DHT22;10106;51.332;12.336;2023-01-08T11:09:49;8.70;99.90
19888;DHT22;10106;51.332;12.336;2023-01-08T11:12:35;8.70;99.90
19888;DHT22;10106;51.332;12.336;2023-01-08T11:15:04;8.80;99.90
19888;DHT22;10106;51.332;12.336;2023-01-08T11:17:32;8.80;99.90
19888;DHT22;10106;51.332;12.336;2023-01-08T11:20:27;8.80;99.90
19888;DHT22;10106;51.332;12.336;2023-01-08T11:23:23;8.80;99.90
19888;DHT22;10106;51.332;12.336;2023-01-08T11:28:59;8.80;99.90
19888;DHT22;10106;51.332;12.336;2023-01-08T11:34:17;9.00;99.90
19888;DHT22;10106;51.332;12.336;2023-01-08T11:36:55;9.00;99.90
19888;DHT22;10106;51.332;12.336;2023-01-08T11:39:24;9.00;99.90
19888;DHT22;10106;51.332;12.336;2023-01-08T11:47:55;9.00;99.90
19888;DHT22;10106;51.332;12.336;2023-01-08T11:53:40;9.10;99.90
19888;DHT22;10106;51.332;12.336;2023-01-08T12:07:13;9.20;99.90
19888;DHT22;10106;51.332;12.336;2023-01-08T12:09:45;9.30;99.90
19888;DHT22;10106;51.332;12.336;2023-01-08T12:15:06;9.30;99.90
19888;DHT22;10106;51.332;12.336;2023-01-08T12:22:56;9.40;99.90
19888;DHT22;10106;51.332;12.336;2023-01-08T12:33:36;9.50;99.90
19888;DHT22;10106;51.332;12.336;2023-01-08T12:36:11;9.50;99.90
19888;DHT22;10106;51.332;12.336;2023-01-08T12:38:43;9.60;99.90
19888;DHT22;10106;51.332;12.336;2023-01-08T12:41:15;9.60;99.90
19888;DHT22;10106;51.332;12.336;2023-01-08T12:44:02;9.70;99.90
19888;DHT22;10106;51.332;12.336;2023-01-08T12:46:31;9.70;99.90
19888;DHT22;10106;51.332;12.336;2023-01-08T12:48:58;9.70;99.90
19888;DHT22;10106;51.332;12.336;2023-01-08T12:51:34;9.70;99.90
19888;DHT22;10106;51.332;12.336;2023-01-08T12:56:59;9.70;99.90
19888;DHT22;10106;51.332;12.336;2023-01-08T12:59:56;9.70;99.90
19888;DHT22;10106;51.332;12.336;2023-01-08T13:08:07;9.70;99.90
19888;DHT22;10106;51.332;12.336;2023-01-08T13:10:52;9.60;99.90
19888;DHT22;10106;51.332;12.336;2023-01-08T13:13:35;9.70;99.90
19888;DHT22;10106;51.332;12.336;2023-01-08T13:19:01;9.70;99.90
19888;DHT22;10106;51.332;12.336;2023-01-08T13:26:30;9.70;99.90
19888;DHT22;10106;51.332;12.336;2023-01-08T13:29:23;9.70;99.90
19888;DHT22;10106;51.332;12.336;2023-01-08T13:31:50;9.70;99.90
19888;DHT22;10106;51.332;12.336;2023-01-08T13:34:41;9.70;99.90
19888;DHT22;10106;51.332;12.336;2023-01-08T13:37:07;9.80;99.90
19888;DHT22;10106;51.332;12.336;2023-01-08T13:39:35;9.80;99.90
19888;DHT22;10106;51.332;12.336;2023-01-08T13:44:40;9.70;99.90
19888;DHT22;10106;51.332;12.336;2023-01-08T13:47:45;9.70;99.90
19888;DHT22;10106;51.332;12.336;2023-01-08T13:50:18;9.70;99.90
19888;DHT22;10106;51.332;12.336;2023-01-08T13:52:48;9.70;99.90
19888;DHT22;10106;51.332;12.336;2023-01-08T13:55:27;9.60;99.90
19888;DHT22;10106;51.332;12.336;2023-01-08T13:57:57;9.70;99.90
19888;DHT22;10106;51.332;12.336;2023-01-08T14:00:37;9.70;99.90
19888;DHT22;10106;51.332;12.336;2023-01-08T14:03:30;9.60;99.90
19888;DHT22;10106;51.332;12.336;2023-01-08T14:06:19;9.70;99.90
19888;DHT22;10106;51.332;12.336;2023-01-08T14:09:00;9.70;99.90
19888;DHT22;10106;51.332;12.336;2023-01-08T14:14:03;9.60;99.90
19888;DHT22;10106;51.332;12.336;2023-01-08T14:16:28;9.60;99.90
19888;DHT22;10106;51.332;12.336;2023-01-08T14:18:59;9.50;99.90
19888;DHT22;10106;51.332;12.336;2023-01-08T14:21:25;9.50;99.90
19888;DHT22;10106;51.332;12.336;2023-01-08T14:23:51;9.50;99.90
19888;DHT22;10106;51.332;12.336;2023-01-08T14:26:31;9.50;99.90
19888;DHT22;10106;51.332;12.336;2023-01-08T14:28:57;9.50;99.90
19888;DHT22;10106;51.332;12.336;2023-01-08T14:31:24;9.50;99.90
19888;DHT22;10106;51.332;12.336;2023-01-08T14:33:52;9.50;99.90
19888;DHT22;10106;51.332;12.336;2023-01-08T14:36:19;9.50;99.90
19888;DHT22;10106;51.332;12.336;2023-01-08T14:38:45;9.50;99.90
19888;DHT22;10106;51.332;12.336;2023-01-08T14:41:20;9.50;99.90
19888;DHT22;10106;51.332;12.336;2023-01-08T14:43:49;9.60;99.90
19888;DHT22;10106;51.332;12.336;2023-01-08T14:46:33;9.60;99.90
19888;DHT22;10106;51.332;12.336;2023-01-08T14:48:59;9.70;99.90
19888;DHT22;10106;51.332;12.336;2023-01-08T14:51:27;9.70;99.90
19888;DHT22;10106;51.332;12.336;2023-01-08T14:54:02;9.60;99.90
19888;DHT22;10106;51.332;12.336;2023-01-08T14:56:33;9.60;99.90
19888;DHT22;10106;51.332;12.336;2023-01-08T14:59:06;9.50;99.90
19888;DHT22;10106;51.332;12.336;2023-01-08T15:01:32;9.50;99.90
19888;DHT22;10106;51.332;12.336;2023-01-08T15:06:38;9.40;99.90
19888;DHT22;10106;51.332;12.336;2023-01-08T15:09:23;9.30;99.90
19888;DHT22;10106;51.332;12.336;2023-01-08T15:11:55;9.30;99.90
19888;DHT22;10106;51.332;12.336;2023-01-08T15:14:23;9.20;99.90
19888;DHT22;10106;51.332;12.336;2023-01-08T15:16:50;9.20;99.90
19888;DHT22;10106;51.332;12.336;2023-01-08T15:19:23;9.20;99.90
19888;DHT22;10106;51.332;12.336;2023-01-08T15:21:54;9.10;99.90
19888;DHT22;10106;51.332;12.336;2023-01-08T15:26:54;9.00;99.90
19888;DHT22;10106;51.332;12.336;2023-01-08T15:29:29;8.90;99.90
19888;DHT22;10106;51.332;12.336;2023-01-08T15:34:43;8.70;99.90
19888;DHT22;10106;51.332;12.336;2023-01-08T15:37:10;8.60;99.90
19888;DHT22;10106;51.332;12.336;2023-01-08T15:39:35;8.50;99.90
19888;DHT22;10106;51.332;12.336;2023-01-08T15:42:21;8.40;99.90
19888;DHT22;10106;51.332;12.336;2023-01-08T15:45:11;8.30;99.90
19888;DHT22;10106;51.332;12.336;2023-01-08T15:47:37;8.30;99.90
19888;DHT22;10106;51.332;12.336;2023-01-08T15:50:03;8.20;99.90
19888;DHT22;10106;51.332;12.336;2023-01-08T15:52:29;8.20;99.90
19888;DHT22;10106;51.332;12.336;2023-01-08T15:54:59;8.10;99.90
19888;DHT22;10106;51.332;12.336;2023-01-08T15:57:25;8.20;99.90
19888;DHT22;10106;51.332;12.336;2023-01-08T15:59:51;8.10;99.90
19888;DHT22;10106;51.332;12.336;2023-01-08T16:02:17;8.00;99.90
19888;DHT22;10106;51.332;12.336;2023-01-08T16:04:43;7.90;99.90
19888;DHT22;10106;51.332;12.336;2023-01-08T16:07:09;7.80;99.90
19888;DHT22;10106;51.332;12.336;2023-01-08T16:09:35;7.80;99.90
19888;DHT22;10106;51.332;12.336;2023-01-08T16:12:00;7.80;99.90
19888;DHT22;10106;51.332;12.336;2023-01-08T16:14:26;7.80;99.90
19888;DHT22;10106;51.332;12.336;2023-01-08T16:16:52;7.70;99.90
19888;DHT22;10106;51.332;12.336;2023-01-08T16:19:18;7.70;99.90
19888;DHT22;10106;51.332;12.336;2023-01-08T16:21:43;7.70;99.90
19888;DHT22;10106;51.332;12.336;2023-01-08T16:24:12;7.60;99.90
19888;DHT22;10106;51.332;12.336;2023-01-08T16:26:38;7.60;99.90
19888;DHT22;10106;51.332;12.336;2023-01-08T16:29:04;7.50;99.90
19888;DHT22;10106;51.332;12.336;2023-01-08T16:31:29;7.50;99.90
19888;DHT22;10106;51.332;12.336;2023-01-08T16:34:00;7.50;99.90
19888;DHT22;10106;51.332;12.336;2023-01-08T16:36:26;7.50;99.90
19888;DHT22;10106;51.332;12.336;2023-01-08T16:38:52;7.50;99.90
19888;DHT22;10106;51.332;12.336;2023-01-08T16:41:17;7.50;99.90
19888;DHT22;10106;51.332;12.336;2023-01-08T16:43:43;7.50;99.90
19888;DHT22;10106;51.332;12.336;2023-01-08T16:46:14;7.50;99.90
19888;DHT22;10106;51.332;12.336;2023-01-08T16:48:41;7.50;99.90
19888;DHT22;10106;51.332;12.336;2023-01-08T16:51:07;7.50;99.90
19888;DHT22;10106;51.332;12.336;2023-01-08T16:53:32;7.50;99.90
19888;DHT22;10106;51.332;12.336;2023-01-08T16:56:00;7.50;99.90
19888;DHT22;10106;51.332;12.336;2023-01-08T16:58:26;7.50;99.90
19888;DHT22;10106;51.332;12.336;2023-01-08T17:00:54;7.60;99.90
19888;DHT22;10106;51.332;12.336;2023-01-08T17:03:20;7.60;99.90
19888;DHT22;10106;51.332;12.336;2023-01-08T17:05:47;7.60;99.90
19888;DHT22;10106;51.332;12.336;2023-01-08T17:08:13;7.50;99.90
19888;DHT22;10106;51.332;12.336;2023-01-08T17:10:42;7.50;99.90
19888;DHT22;10106;51.332;12.336;2023-01-08T17:13:08;7.50;99.90
19888;DHT22;10106;51.332;12.336;2023-01-08T17:15:35;7.40;99.90
19888;DHT22;10106;51.332;12.336;2023-01-08T17:18:01;7.40;99.90
19888;DHT22;10106;51.332;12.336;2023-01-08T17:20:27;7.50;99.90